Time;durP1;ratioP1;P1;durP2;ratioP2;P2;SDS_P1;SDS_P2;PMS_P1;PMS_P2;Temp;Humidity;BMP_temperature;BMP_pressure;BME280_temperature;BME280_humidity;BME280_pressure;Samples;Min_cycle;Max_cycle;Signal;HPM_P1;HPM_P2
2021/11/21 00:01:22;;;;;;;5.90;5.28;;;;;;;15.62;53.76;99486.28;2334950;81;25719;-82
2021/11/21 00:05:02;;;;;;;5.80;5.25;;;;;;;15.61;53.73;99479.73;2334960;82;26165;-80
2021/11/21 00:08:24;;;;;;;5.47;4.97;;;;;;;15.59;53.76;99484.99;2343612;82;25940;-80
2021/11/21 00:11:58;;;;;;;5.58;5.00;;;;;;;15.58;53.75;99476.70;2336580;83;25650;-79
2021/11/21 00:15:20;;;;;;;7.42;4.97;;;;;;;15.56;53.69;99470.61;2353314;83;25218;-74
2021/11/21 00:18:41;;;;;;;7.15;4.50;;;;;;;15.54;53.68;99476.31;2340613;83;25677;-81
2021/11/21 00:22:02;;;;;;;7.30;5.15;;;;;;;15.52;53.69;99458.38;2339827;83;31347;-78
2021/11/21 00:25:25;;;;;;;6.87;5.05;;;;;;;15.50;53.66;99463.66;2343049;83;25384;-80
2021/11/21 00:28:47;;;;;;;6.40;4.75;;;;;;;15.48;53.65;99462.79;2345882;83;25612;-75
2021/11/21 00:32:08;;;;;;;5.17;4.50;;;;;;;15.48;53.62;99459.30;2346144;83;26492;-76
2021/11/21 00:35:33;;;;;;;5.97;4.70;;;;;;;15.46;53.59;99467.20;2343908;83;25683;-81
2021/11/21 00:38:54;;;;;;;6.37;4.95;;;;;;;15.44;53.54;99453.66;2344865;83;25652;-78
2021/11/21 00:42:16;;;;;;;5.33;4.75;;;;;;;15.42;53.54;99461.53;2353589;83;31617;-79
2021/11/21 00:45:38;;;;;;;5.35;4.85;;;;;;;15.41;53.51;99455.00;2320928;83;25701;-81
2021/11/21 00:48:59;;;;;;;5.75;5.12;;;;;;;15.40;53.47;99455.90;2361410;83;25579;-79
2021/11/21 00:52:24;;;;;;;5.33;4.83;;;;;;;15.39;53.49;99453.72;2340631;83;25633;-82
2021/11/21 00:59:13;;;;;;;5.95;4.75;;;;;;;15.38;53.43;99445.39;2340019;83;25892;-75
2021/11/21 01:02:46;;;;;;;5.22;4.60;;;;;;;15.35;53.40;99454.61;2345418;83;25678;-76
2021/11/21 01:06:08;;;;;;;5.87;4.35;;;;;;;15.32;53.46;99449.39;2354664;83;25873;-82
2021/11/21 01:09:32;;;;;;;5.00;4.50;;;;;;;15.34;53.37;99448.95;2348813;81;26674;-80
2021/11/21 01:12:55;;;;;;;6.10;5.35;;;;;;;15.32;53.40;99446.77;2349970;83;25671;-75
2021/11/21 01:16:18;;;;;;;5.33;4.83;;;;;;;15.32;53.36;99436.27;2353941;83;25622;-75
2021/11/21 01:19:43;;;;;;;5.80;5.22;;;;;;;15.30;53.33;99432.36;2317511;83;31392;-81
2021/11/21 01:23:04;;;;;;;6.67;5.35;;;;;;;15.29;53.35;99424.06;2349225;82;25599;-80
2021/11/21 01:26:25;;;;;;;6.28;5.70;;;;;;;15.29;53.31;99428.45;2308050;83;25606;-80
2021/11/21 01:29:46;;;;;;;5.08;4.60;;;;;;;15.27;53.35;99423.64;2294912;83;25706;-76
2021/11/21 01:33:07;;;;;;;5.15;4.55;;;;;;;15.27;53.36;99421.88;2327415;82;31402;-80
2021/11/21 01:36:28;;;;;;;5.80;5.17;;;;;;;15.26;53.35;99412.72;2352204;82;25421;-75
2021/11/21 01:39:50;;;;;;;6.10;5.08;;;;;;;15.24;53.38;99412.72;2346348;82;31544;-81
2021/11/21 01:43:15;;;;;;;5.65;5.12;;;;;;;15.23;53.38;99407.05;2353268;82;25934;-81
2021/11/21 01:46:39;;;;;;;5.80;5.30;;;;;;;15.23;53.38;99395.69;2352063;82;25687;-80
2021/11/21 01:50:00;;;;;;;5.80;5.30;;;;;;;15.22;53.40;99387.36;2345230;83;25577;-80
2021/11/21 01:53:24;;;;;;;5.62;5.12;;;;;;;15.22;53.40;99386.05;2339912;82;31571;-81
2021/11/21 01:56:51;;;;;;;5.70;5.20;;;;;;;15.21;53.38;99383.01;2344195;82;25716;-80
2021/11/21 02:00:16;;;;;;;6.53;4.80;;;;;;;15.19;53.36;99372.98;2261391;86;26204;-81
2021/11/21 02:03:39;;;;;;;5.12;4.67;;;;;;;15.19;53.37;99380.86;2259367;86;25898;-80
2021/11/21 02:07:00;;;;;;;5.87;5.03;;;;;;;15.19;53.35;99370.36;2258365;86;26024;-80
2021/11/21 02:10:23;;;;;;;6.35;5.75;;;;;;;15.18;53.35;99364.21;2267454;86;25832;-78
2021/11/21 02:13:47;;;;;;;6.12;5.62;;;;;;;15.16;53.30;99350.25;2260012;87;26123;-80
2021/11/21 02:17:07;;;;;;;5.62;5.12;;;;;;;15.15;53.32;99361.62;2262331;86;25766;-79
2021/11/21 02:20:47;;;;;;;6.20;5.60;;;;;;;15.15;53.28;99360.75;2266432;86;31018;-79
2021/11/21 02:24:08;;;;;;;5.65;5.08;;;;;;;15.13;53.28;99348.97;2266271;86;25654;-79
2021/11/21 02:27:59;;;;;;;6.60;5.67;;;;;;;15.13;53.27;99340.23;2261864;86;31478;-79
2021/11/21 02:31:16;;;;;;;5.37;4.70;;;;;;;15.11;53.25;99338.47;2243888;86;25875;-78
2021/11/21 02:34:45;;;;;;;6.03;5.53;;;;;;;15.10;53.21;99333.25;2252174;87;25323;-79
2021/11/21 02:38:08;;;;;;;5.47;4.97;;;;;;;15.06;53.29;99335.05;2338251;81;25701;-78
2021/11/21 02:41:29;;;;;;;5.97;5.50;;;;;;;15.06;53.29;99335.05;2365878;82;25885;-74
2021/11/21 02:44:50;;;;;;;6.12;5.60;;;;;;;15.06;53.18;99332.42;2344449;82;25670;-80
2021/11/21 02:48:11;;;;;;;7.12;5.65;;;;;;;15.04;53.06;99317.13;2356840;82;30946;-73
2021/11/21 02:51:35;;;;;;;6.95;5.42;;;;;;;15.03;53.17;99325.89;2344724;82;30825;-78
2021/11/21 02:54:57;;;;;;;6.03;5.53;;;;;;;15.03;53.16;99331.59;2351154;83;25898;-75
2021/11/21 02:58:20;;;;;;;7.08;5.92;;;;;;;15.02;53.16;99320.67;2318407;81;26147;-75
2021/11/21 03:01:41;;;;;;;6.08;5.47;;;;;;;15.02;53.16;99316.30;2359794;82;30834;-81
2021/11/21 03:05:03;;;;;;;5.60;5.08;;;;;;;15.01;53.13;99309.73;2353111;82;25702;-78
2021/11/21 03:08:25;;;;;;;6.83;6.15;;;;;;;14.99;53.12;99304.96;2355550;82;25695;-77
2021/11/21 03:11:46;;;;;;;6.15;5.65;;;;;;;14.98;53.12;99299.27;2342736;81;25731;-81
2021/11/21 03:15:08;;;;;;;6.62;6.03;;;;;;;14.98;53.07;99288.77;2347602;83;25364;-76
2021/11/21 03:18:38;;;;;;;6.85;6.15;;;;;;;14.95;53.08;99297.98;2362219;83;25937;-81
2021/11/21 03:22:00;;;;;;;6.20;5.70;;;;;;;14.93;53.07;99298.02;2321065;83;25839;-82
2021/11/21 03:25:32;;;;;;;6.60;6.10;;;;;;;14.93;53.07;99298.47;2350736;82;25626;-74
2021/11/21 03:28:52;;;;;;;6.55;5.92;;;;;;;14.90;53.04;99288.86;2367818;82;25785;-81
2021/11/21 03:32:13;;;;;;;7.58;6.60;;;;;;;14.90;53.00;99286.69;2357181;82;30939;-82
2021/11/21 03:35:40;;;;;;;6.95;6.35;;;;;;;14.85;53.05;99271.02;2335500;82;25739;-79
2021/11/21 03:39:11;;;;;;;7.83;6.58;;;;;;;14.86;53.04;99277.98;2334836;82;26406;-81
2021/11/21 03:42:32;;;;;;;6.85;6.17;;;;;;;14.85;53.04;99273.19;2348762;82;25797;-76
2021/11/21 03:45:53;;;;;;;7.17;6.62;;;;;;;14.85;53.04;99268.39;2362939;81;25661;-74
2021/11/21 03:49:14;;;;;;;8.10;7.35;;;;;;;14.83;53.05;99275.39;2350751;83;30857;-74
2021/11/21 03:52:35;;;;;;;8.30;7.53;;;;;;;14.81;53.03;99271.91;2354946;82;25729;-75
2021/11/21 03:55:57;;;;;;;8.18;7.30;;;;;;;14.82;53.05;99273.22;2353298;82;30877;-74
2021/11/21 03:59:19;;;;;;;11.63;8.45;;;;;;;14.81;53.03;99267.52;2357882;82;25687;-75
2021/11/21 04:02:41;;;;;;;8.85;7.28;;;;;;;14.80;53.11;99268.42;2353340;82;25174;-80
2021/11/21 04:06:12;;;;;;;;;;;;;;;;;;;;;
2021/11/21 04:09:36;;;;;;;12.37;8.10;;;;;;;14.77;52.98;99261.89;2357258;82;25933;-79
2021/11/21 04:12:57;;;;;;;7.92;7.22;;;;;;;14.77;52.97;99261.03;2376522;81;25603;-74
2021/11/21 04:16:19;;;;;;;7.22;6.60;;;;;;;14.75;52.91;99270.24;2363459;82;25695;-81
2021/11/21 04:19:50;;;;;;;9.98;8.20;;;;;;;14.73;52.86;99251.45;2357324;82;25598;-78
2021/11/21 04:23:12;;;;;;;8.98;8.08;;;;;;;14.71;52.83;99258.47;2359640;82;25661;-80
2021/11/21 04:26:33;;;;;;;8.73;7.85;;;;;;;14.67;52.80;99256.32;2362393;82;25791;-78
2021/11/21 04:29:57;;;;;;;7.50;6.80;;;;;;;14.51;52.84;99228.11;2354674;82;26446;-81
2021/11/21 04:33:19;;;;;;;9.68;7.40;;;;;;;14.63;53.04;99265.98;2354099;82;25716;-79
2021/11/21 04:36:40;;;;;;;8.63;7.47;;;;;;;14.63;53.04;99265.98;2363007;82;25664;-79
2021/11/21 04:40:05;;;;;;;8.03;7.22;;;;;;;14.51;52.62;99230.73;2353500;82;25710;-81
2021/11/21 04:43:27;;;;;;;8.33;7.53;;;;;;;14.61;52.60;99249.83;2364825;82;25722;-81
2021/11/21 04:47:06;;;;;;;10.85;8.43;;;;;;;14.61;52.60;99249.83;2356438;82;25714;-83
2021/11/21 04:50:27;;;;;;;7.20;6.50;;;;;;;14.60;52.59;99250.72;2378290;82;25678;-74
2021/11/21 04:53:53;;;;;;;7.78;7.08;;;;;;;14.59;52.57;99242.44;2339726;83;25928;-81
2021/11/21 04:57:15;;;;;;;8.95;8.05;;;;;;;14.58;52.53;99244.64;2358711;82;30810;-74
2021/11/21 05:00:36;;;;;;;9.05;7.83;;;;;;;14.57;52.53;99236.33;2379428;81;25661;-76
2021/11/21 05:03:57;;;;;;;8.58;7.60;;;;;;;14.52;52.39;99240.32;2353877;82;25714;-80
2021/11/21 05:07:18;;;;;;;9.23;8.35;;;;;;;14.52;52.39;99240.32;2352283;82;30938;-76
2021/11/21 05:10:39;;;;;;;8.50;7.70;;;;;;;14.50;52.54;99231.59;2351960;83;30907;-79
2021/11/21 05:14:04;;;;;;;10.82;8.45;;;;;;;14.51;52.54;99246.87;2349601;82;30865;-79
2021/11/21 05:17:25;;;;;;;7.92;7.15;;;;;;;14.48;52.51;99238.59;2356187;82;25684;-80
2021/11/21 05:20:47;;;;;;;8.75;7.83;;;;;;;14.48;52.51;99238.59;2346133;82;25889;-77
2021/11/21 05:24:08;;;;;;;8.38;7.58;;;;;;;14.49;52.56;99234.20;2353217;82;25653;-80
2021/11/21 05:27:43;;;;;;;9.43;8.05;;;;;;;14.43;52.49;99214.16;2364038;82;25681;-81
2021/11/21 05:31:02;;;;;;;9.05;8.15;;;;;;;14.32;52.68;99193.30;2357394;82;26101;-80
2021/11/21 05:34:26;;;;;;;8.25;7.55;;;;;;;14.32;52.68;99193.30;2362385;82;25706;-80
2021/11/21 05:37:50;;;;;;;11.10;8.75;;;;;;;14.44;52.50;99216.33;2356757;82;25840;-80
2021/11/21 05:41:11;;;;;;;10.18;7.90;;;;;;;14.43;52.51;99210.67;2376346;81;25779;-80
2021/11/21 05:44:33;;;;;;;8.78;7.55;;;;;;;14.24;52.49;99169.35;2360871;82;30822;-75
2021/11/21 05:47:54;;;;;;;9.10;8.20;;;;;;;14.40;52.51;99212.42;2331085;83;26004;-79
2021/11/21 05:51:18;;;;;;;9.40;8.50;;;;;;;14.39;52.55;99212.45;2317507;84;25649;-81
2021/11/21 05:54:39;;;;;;;8.98;8.20;;;;;;;14.25;52.57;99189.02;2326432;82;31122;-79
2021/11/21 05:58:00;;;;;;;9.10;8.25;;;;;;;14.38;52.59;99207.66;2328698;82;25678;-80
2021/11/21 06:01:21;;;;;;;12.60;8.48;;;;;;;14.38;52.55;99214.66;2342474;83;30962;-81
2021/11/21 06:04:43;;;;;;;9.40;8.10;;;;;;;14.35;52.49;99206.83;2348799;82;25626;-81
2021/11/21 06:08:06;;;;;;;8.88;8.08;;;;;;;14.35;52.49;99206.83;2349917;83;25666;-81
2021/11/21 06:11:28;;;;;;;8.23;7.47;;;;;;;14.35;52.58;99209.45;2358415;83;25718;-79
2021/11/21 06:14:49;;;;;;;9.18;8.28;;;;;;;14.34;52.56;99207.27;2353446;82;26559;-81
2021/11/21 06:18:10;;;;;;;9.18;8.28;;;;;;;14.31;52.55;99198.13;2306606;84;25680;-77
2021/11/21 06:21:40;;;;;;;8.48;7.62;;;;;;;14.31;52.55;99198.13;2340348;82;25717;-79
2021/11/21 06:25:02;;;;;;;11.18;8.55;;;;;;;14.31;52.72;99199.85;2346609;82;26601;-80
2021/11/21 06:28:25;;;;;;;7.70;6.97;;;;;;;14.16;52.54;99172.06;2348646;83;25656;-80
2021/11/21 06:32:36;;;;;;;8.45;7.65;;;;;;;14.30;52.66;99199.44;2342819;83;25741;-80
2021/11/21 06:35:57;;;;;;;7.70;7.08;;;;;;;14.22;52.69;99183.80;2281699;84;25768;-75
2021/11/21 06:39:47;;;;;;;9.80;8.80;;;;;;;14.27;52.70;99200.33;2270624;85;31471;-77
2021/11/21 06:43:11;;;;;;;9.55;8.43;;;;;;;14.26;52.70;99193.80;2247171;86;26336;-81
2021/11/21 06:46:38;;;;;;;9.35;8.33;;;;;;;14.26;52.76;99195.11;2222744;87;25717;-79
2021/11/21 06:50:19;;;;;;;8.93;8.00;;;;;;;14.27;52.76;99194.22;2224870;87;25336;-77
2021/11/21 06:53:43;;;;;;;8.40;7.47;;;;;;;14.27;52.66;99194.22;2209252;87;26598;-79
2021/11/21 06:57:14;;;;;;;10.28;9.28;;;;;;;14.27;52.66;99194.22;2280969;85;25291;-81
2021/11/21 07:00:36;;;;;;;9.43;8.45;;;;;;;14.26;52.77;99190.73;2346355;84;25744;-80
2021/11/21 07:04:10;;;;;;;9.38;8.48;;;;;;;14.25;52.80;99192.94;2344509;84;25680;-79
2021/11/21 07:07:28;;;;;;;9.10;8.30;;;;;;;14.25;52.81;99195.56;2346005;83;25532;-78
2021/11/21 07:10:49;;;;;;;9.23;8.38;;;;;;;14.25;52.83;99189.02;2360991;83;31429;-76
2021/11/21 07:14:11;;;;;;;9.23;8.38;;;;;;;14.26;52.88;99184.19;2362081;83;44477;-80
2021/11/21 07:17:32;;;;;;;10.18;9.18;;;;;;;14.27;52.30;99181.11;2361846;83;25619;-79
2021/11/21 07:20:54;;;;;;;9.18;8.33;;;;;;;14.18;52.82;99167.69;2360897;83;26521;-74
2021/11/21 07:24:17;;;;;;;9.95;8.58;;;;;;;14.27;52.91;99186.36;2362330;83;25677;-80
2021/11/21 07:27:58;;;;;;;9.68;8.78;;;;;;;14.27;52.91;99186.36;2314856;85;25626;-81
2021/11/21 07:31:19;;;;;;;10.88;9.68;;;;;;;14.26;52.97;99191.19;2313838;85;26093;-75
2021/11/21 07:34:41;;;;;;;11.22;9.58;;;;;;;14.25;52.98;99181.14;2322530;84;25328;-77
2021/11/21 07:38:02;;;;;;;10.82;9.90;;;;;;;14.28;53.00;99176.32;2322411;85;25429;-76
2021/11/21 07:41:23;;;;;;;11.53;9.95;;;;;;;14.28;53.00;99176.32;2322148;85;30873;-75
2021/11/21 07:44:44;;;;;;;11.22;10.05;;;;;;;14.28;53.00;99186.36;2321649;85;26025;-74
2021/11/21 07:51:49;;;;;;;10.58;9.58;;;;;;;14.28;53.01;99179.81;2181146;90;25750;-80
2021/11/21 07:55:10;;;;;;;9.83;8.80;;;;;;;14.28;53.03;99177.63;2183294;90;25756;-76
2021/11/21 07:58:34;;;;;;;10.30;9.35;;;;;;;14.26;52.85;99159.73;2184183;88;25746;-76
2021/11/21 08:01:57;;;;;;;10.35;9.35;;;;;;;14.28;53.03;99169.77;2191668;88;25736;-79
2021/11/21 08:05:18;;;;;;;11.18;9.83;;;;;;;14.26;53.06;99164.97;2200528;88;25409;-80
2021/11/21 08:08:41;;;;;;;12.95;9.98;;;;;;;14.27;53.05;99177.19;2185618;88;25362;-79
2021/11/21 08:12:02;;;;;;;10.15;9.13;;;;;;;14.27;52.93;99176.73;2184616;88;30906;-76
2021/11/21 08:15:24;;;;;;;10.88;9.58;;;;;;;14.28;53.05;99174.56;2188489;88;26257;-80
2021/11/21 08:18:45;;;;;;;10.25;9.13;;;;;;;14.14;52.85;99156.36;2159676;88;25813;-80
2021/11/21 08:22:08;;;;;;;11.78;10.32;;;;;;;14.14;52.85;99156.36;2189179;90;30870;-77
2021/11/21 08:25:35;;;;;;;9.93;9.03;;;;;;;14.29;52.99;99167.56;2199484;89;26290;-77
2021/11/21 08:28:56;;;;;;;10.03;8.98;;;;;;;14.30;52.92;99176.70;2200536;89;25863;-79
2021/11/21 08:32:37;;;;;;;10.63;9.60;;;;;;;14.15;52.90;99150.23;2197796;88;30927;-81
2021/11/21 08:39:35;;;;;;;10.58;9.60;;;;;;;14.28;52.86;99177.63;2181798;88;25816;-80
2021/11/21 08:42:59;;;;;;;11.50;9.40;;;;;;;14.26;52.85;99162.35;2195126;89;25737;-80
2021/11/21 08:46:23;;;;;;;10.75;9.73;;;;;;;14.26;52.85;99162.35;2204278;84;25798;-81
2021/11/21 08:49:44;;;;;;;10.60;9.50;;;;;;;14.27;52.86;99160.14;2334318;82;25771;-79
2021/11/21 08:53:05;;;;;;;11.12;9.43;;;;;;;14.15;52.81;99141.06;2332690;82;31386;-76
2021/11/21 08:56:33;;;;;;;11.88;10.68;;;;;;;14.34;52.76;99165.33;2334652;82;26055;-75
2021/11/21 09:03:40;;;;;;;10.30;9.30;;;;;;;14.36;52.61;99145.63;2347962;84;25774;-74
2021/11/21 09:07:01;;;;;;;11.12;9.28;;;;;;;14.36;52.61;99145.63;2345457;82;25786;-76
2021/11/21 09:10:23;;;;;;;10.55;9.55;;;;;;;14.47;52.50;99145.50;2346272;83;25707;-81
2021/11/21 09:13:44;;;;;;;9.55;8.60;;;;;;;14.53;52.43;99169.06;2340628;83;25753;-75
2021/11/21 09:17:05;;;;;;;10.20;9.18;;;;;;;14.53;52.37;99166.44;2324581;83;25720;-80
2021/11/21 09:20:27;;;;;;;9.45;8.53;;;;;;;14.53;52.30;99157.27;2361551;82;25682;-83
2021/11/21 09:23:48;;;;;;;9.85;9.05;;;;;;;14.55;52.38;99160.30;2335776;82;25702;-75
2021/11/21 09:27:14;;;;;;;11.08;7.80;;;;;;;14.59;52.34;99163.30;2342897;83;25644;-81
2021/11/21 09:30:35;;;;;;;9.35;8.55;;;;;;;14.57;52.44;99157.20;2355623;83;25804;-81
2021/11/21 09:33:57;;;;;;;9.15;8.35;;;;;;;14.71;52.58;99164.03;2368281;83;26697;-82
2021/11/21 09:37:17;;;;;;;7.92;7.20;;;;;;;14.75;52.66;99164.41;2368405;83;30878;-81
2021/11/21 09:40:39;;;;;;;7.67;6.97;;;;;;;14.80;52.84;99175.73;2367106;83;31481;-75
2021/11/21 09:44:03;;;;;;;8.33;7.47;;;;;;;14.82;52.95;99168.27;2368251;83;25647;-80
2021/11/21 09:47:24;;;;;;;8.25;7.55;;;;;;;14.84;53.01;99169.55;2366999;83;26090;-78
2021/11/21 09:50:49;;;;;;;7.65;6.95;;;;;;;14.86;53.06;99161.22;2347666;83;25896;-80
2021/11/21 09:54:21;;;;;;;7.95;7.28;;;;;;;14.87;53.14;99160.33;2368366;83;25697;-80
2021/11/21 09:58:01;;;;;;;7.33;6.22;;;;;;;14.87;53.16;99150.69;2360829;82;25607;-81
2021/11/21 10:01:33;;;;;;;;;;;;;;;14.88;53.18;99132.77;2366734;83;25756;-77
2021/11/21 10:05:46;;;;;;;7.90;7.20;;;;;;;14.88;53.21;99135.81;2366867;83;25668;-81
2021/11/21 10:09:08;;;;;;;8.13;7.42;;;;;;;14.73;53.44;99115.05;2353289;82;25691;-78
2021/11/21 10:12:38;;;;;;;7.65;6.80;;;;;;;14.87;53.40;99130.16;2329576;83;25677;-80
2021/11/21 10:16:27;;;;;;;8.20;7.40;;;;;;;14.90;53.34;99133.19;2329629;84;25667;-78
2021/11/21 10:20:13;;;;;;;7.45;6.58;;;;;;;14.91;53.42;99127.03;2308249;84;25790;-82
2021/11/21 10:23:36;;;;;;;7.75;7.05;;;;;;;14.94;53.28;99132.24;2308315;85;25839;-73
2021/11/21 10:27:05;;;;;;;6.95;6.35;;;;;;;14.99;53.45;99131.30;2328245;84;25710;-73
2021/11/21 10:30:26;;;;;;;6.15;5.65;;;;;;;14.94;53.43;99117.36;2329229;84;25685;-80
2021/11/21 10:34:05;;;;;;;6.12;5.62;;;;;;;15.06;53.40;99124.20;2305994;85;25274;-79
2021/11/21 10:37:37;;;;;;;7.28;6.58;;;;;;;15.10;53.39;99121.95;2327747;84;25725;-74
2021/11/21 10:45:33;;;;;;;7.95;7.15;;;;;;;15.19;53.31;99124.90;2181427;89;25800;-81
2021/11/21 10:49:33;;;;;;;7.28;6.55;;;;;;;15.21;53.27;99115.22;2181989;88;25766;-81
2021/11/21 10:53:03;;;;;;;6.65;6.05;;;;;;;15.22;53.22;99119.57;2180653;88;25755;-82
2021/11/21 10:56:24;;;;;;;7.50;6.70;;;;;;;15.24;53.22;99124.37;2186990;89;26370;-83
2021/11/21 10:59:59;;;;;;;6.67;6.08;;;;;;;15.26;53.20;99110.33;2202243;89;25768;-81
2021/11/21 11:03:22;;;;;;;7.70;6.40;;;;;;;15.27;53.20;99117.31;2189102;89;25765;-81
2021/11/21 11:06:43;;;;;;;6.80;6.20;;;;;;;15.28;53.18;99117.72;2194211;89;25747;-79
2021/11/21 11:10:09;;;;;;;7.30;6.60;;;;;;;15.28;53.18;99111.61;2193140;89;25966;-81
2021/11/21 11:13:30;;;;;;;7.22;6.53;;;;;;;15.27;53.15;99113.37;2203264;88;25795;-81
2021/11/21 11:16:56;;;;;;;7.83;7.12;;;;;;;15.28;53.17;99104.59;2294650;84;26289;-77
2021/11/21 11:20:19;;;;;;;7.17;6.40;;;;;;;15.26;53.14;99109.47;2329232;83;25673;-82
2021/11/21 11:23:42;;;;;;;6.30;5.70;;;;;;;15.24;53.18;99109.47;2355262;83;25670;-79
2021/11/21 11:27:22;;;;;;;7.87;6.42;;;;;;;15.21;53.22;99100.33;2347576;83;25725;-78
2021/11/21 11:30:43;;;;;;;6.25;5.65;;;;;;;15.20;53.22;99110.88;2354241;83;25629;-81
2021/11/21 11:34:04;;;;;;;7.37;6.80;;;;;;;15.21;53.23;99113.91;2333714;83;25726;-80
2021/11/21 11:37:42;;;;;;;7.53;6.87;;;;;;;15.21;53.23;99109.52;2337985;82;25697;-73
2021/11/21 11:41:08;;;;;;;6.80;6.22;;;;;;;15.20;53.22;99115.67;2317863;84;25698;-79
2021/11/21 11:44:56;;;;;;;7.58;6.87;;;;;;;15.19;53.26;99119.20;2314155;84;25742;-74
2021/11/21 11:48:38;;;;;;;7.12;6.42;;;;;;;15.18;53.28;99109.56;2308306;84;25678;-79
2021/11/21 11:51:59;;;;;;;7.55;6.85;;;;;;;15.18;53.29;99113.95;2294974;84;25682;-81
2021/11/21 11:55:21;;;;;;;7.40;6.80;;;;;;;15.18;53.33;99108.25;2314750;84;25816;-81
2021/11/21 11:59:02;;;;;;;7.60;6.90;;;;;;;15.18;53.33;99116.58;2315597;84;25653;-79
2021/11/21 12:02:33;;;;;;;7.33;6.65;;;;;;;15.18;53.35;99116.58;2314784;84;25792;-80
2021/11/21 12:06:05;;;;;;;7.05;6.45;;;;;;;15.18;53.36;99117.44;2315319;84;25752;-74
2021/11/21 12:09:31;;;;;;;7.72;7.03;;;;;;;15.19;53.38;99120.96;2315457;85;25749;-73
2021/11/21 12:13:08;;;;;;;7.90;7.20;;;;;;;15.17;53.39;99124.04;2314875;85;26471;-74
2021/11/21 12:16:38;;;;;;;8.55;7.67;;;;;;;15.16;53.39;99122.31;2317008;82;25718;-81
2021/11/21 12:20:01;;;;;;;7.55;6.85;;;;;;;15.14;53.39;99127.57;2295378;84;26437;-78
2021/11/21 12:23:44;;;;;;;8.40;6.00;;;;;;;15.11;53.70;99129.79;2304194;84;26400;-77
2021/11/21 12:27:30;;;;;;;10.43;9.50;;;;;;;15.14;53.87;99132.82;2334524;82;25759;-80
2021/11/21 12:30:51;;;;;;;15.45;11.57;;;;;;;15.13;53.89;99128.47;2366506;83;25726;-80
2021/11/21 12:34:46;;;;;;;8.08;7.30;;;;;;;15.06;53.22;99125.06;2366615;83;25794;-79
2021/11/21 12:38:22;;;;;;;12.35;10.60;;;;;;;15.06;54.77;99123.76;2365318;83;25248;-80
2021/11/21 12:42:11;;;;;;;14.55;12.98;;;;;;;15.20;53.57;99125.31;2253990;86;25969;-80
2021/11/21 12:45:46;;;;;;;16.87;14.33;;;;;;;15.09;53.18;99125.48;2215046;87;26472;-79
2021/11/21 12:49:08;;;;;;;15.20;12.88;;;;;;;14.98;52.90;99128.68;2206513;88;25721;-79
2021/11/21 12:52:29;;;;;;;17.77;14.13;;;;;;;14.86;52.73;99129.29;2225731;87;25751;-81
2021/11/21 12:55:55;;;;;;;14.98;13.28;;;;;;;14.79;52.67;99128.95;2235337;87;25782;-81
2021/11/21 12:59:16;;;;;;;19.30;15.20;;;;;;;14.74;52.53;99137.76;2209042;88;25291;-80
2021/11/21 13:02:37;;;;;;;18.92;13.80;;;;;;;14.67;52.48;99131.73;2211496;88;31491;-80
2021/11/21 13:06:14;;;;;;;15.95;13.70;;;;;;;14.64;52.55;99131.31;2211140;88;25848;-81
2021/11/21 13:09:52;;;;;;;16.73;12.75;;;;;;;14.66;53.04;99135.70;2202012;87;25812;-81
2021/11/21 13:13:24;;;;;;;15.72;11.73;;;;;;;14.72;53.34;99138.25;2205252;89;25691;-80
2021/11/21 13:16:55;;;;;;;15.85;10.85;;;;;;;14.77;53.30;99148.22;2191807;89;26567;-81
2021/11/21 13:20:31;;;;;;;16.17;10.80;;;;;;;14.82;53.50;99147.28;2206234;88;26222;-80
2021/11/21 13:23:53;;;;;;;20.65;12.78;;;;;;;14.91;54.30;99151.97;2311838;83;25698;-81
2021/11/21 13:27:32;;;;;;;12.58;10.55;;;;;;;14.98;54.25;99148.36;2346189;83;25613;-80
2021/11/21 13:31:29;;;;;;;14.33;10.95;;;;;;;15.04;54.87;99149.59;2309892;83;26177;-81
2021/11/21 13:34:57;;;;;;;13.08;11.03;;;;;;;15.09;54.94;99152.59;2287392;85;25866;-81
2021/11/21 13:38:41;;;;;;;12.75;10.10;;;;;;;15.12;54.59;99135.94;2283696;85;26048;-82
2021/11/21 13:46:09;;;;;;;16.17;11.03;;;;;;;15.23;55.20;99147.58;2288639;84;26066;-82
2021/11/21 13:50:02;;;;;;;14.28;11.12;;;;;;;15.23;54.98;99139.70;2287334;85;26138;-81
2021/11/21 13:53:26;;;;;;;15.05;10.10;;;;;;;15.25;55.18;99144.02;2276629;83;26270;-82
2021/11/21 13:56:53;;;;;;;17.23;11.63;;;;;;;15.29;54.85;99147.05;2275907;82;26008;-82
2021/11/21 14:00:29;;;;;;;17.90;12.58;;;;;;;15.31;55.52;99149.63;2328320;82;26217;-80
2021/11/21 14:04:09;;;;;;;11.93;9.68;;;;;;;15.30;55.39;99151.84;2332709;82;25816;-83
2021/11/21 14:12:53;;;;;;;14.87;12.13;;;;;;;15.27;55.11;99146.19;2189090;87;26045;-80
2021/11/21 14:15:52;;;;;;;16.12;12.20;;;;;;;15.30;55.53;99148.77;2173522;88;25738;-81
2021/11/21 14:19:41;;;;;;;12.10;10.25;;;;;;;15.30;55.63;99157.96;2155703;87;25831;-81
2021/11/21 14:23:26;;;;;;;14.25;10.80;;;;;;;15.29;54.95;99157.55;2185241;88;26149;-83
2021/11/21 14:27:25;;;;;;;11.95;10.72;;;;;;;15.33;55.10;99170.18;2184462;89;26250;-83
2021/11/21 14:31:28;;;;;;;10.03;8.40;;;;;;;15.30;55.17;99176.34;2138462;91;25959;-84
2021/11/21 14:39:15;;;;;;;8.65;7.72;;;;;;;15.32;55.10;99181.13;2117496;90;25396;-81
2021/11/21 14:42:41;;;;;;;10.18;9.15;;;;;;;15.35;55.23;99184.14;2066788;93;26181;-82
2021/11/21 14:46:19;;;;;;;9.78;8.68;;;;;;;15.40;55.30;99189.34;2068609;94;26053;-82
2021/11/21 14:50:20;;;;;;;18.27;12.35;;;;;;;15.42;55.40;99189.71;2181190;86;26626;-83
2021/11/21 14:53:49;;;;;;;18.17;14.00;;;;;;;15.39;55.29;99192.42;2110854;91;26221;-81
2021/11/21 14:57:24;;;;;;;20.52;14.43;;;;;;;15.24;54.74;99193.48;2111991;91;26486;-82
2021/11/21 15:05:25;;;;;;;19.85;14.70;;;;;;;14.98;54.23;99194.29;2104357;91;26270;-82
2021/11/21 15:09:02;;;;;;;18.48;14.58;;;;;;;14.86;54.16;99197.95;2078756;93;26247;-84
2021/11/21 15:12:59;;;;;;;18.57;14.70;;;;;;;14.74;54.13;99203.34;2046705;93;26246;-83
2021/11/21 15:16:34;;;;;;;21.17;14.58;;;;;;;14.63;54.05;99207.41;2061296;93;25640;-83
2021/11/21 15:20:13;;;;;;;22.87;15.77;;;;;;;14.49;54.08;99206.23;2071239;92;25733;-82
2021/11/21 15:23:57;;;;;;;16.77;14.50;;;;;;;14.41;54.10;99208.08;2074662;93;25680;-82
2021/11/21 15:27:20;;;;;;;20.08;15.05;;;;;;;14.38;54.11;99212.91;2085301;91;26451;-82
2021/11/21 15:30:58;;;;;;;19.60;13.75;;;;;;;14.30;54.18;99212.09;2084636;91;25591;-82
2021/11/21 15:34:27;;;;;;;19.12;15.00;;;;;;;14.26;54.26;99213.47;2113675;91;25764;-81
2021/11/21 15:37:52;;;;;;;21.33;14.80;;;;;;;14.20;54.35;99208.28;2162807;86;26966;-81
2021/11/21 15:41:19;;;;;;;19.20;14.43;;;;;;;14.15;54.44;99209.20;2232172;86;25814;-82
2021/11/21 15:44:51;;;;;;;19.80;14.23;;;;;;;14.07;54.52;99209.73;2214121;86;26446;-81
2021/11/21 15:48:31;;;;;;;20.75;14.43;;;;;;;14.02;54.63;99211.95;2231362;83;26188;-82
2021/11/21 15:51:55;;;;;;;20.95;14.78;;;;;;;13.97;54.73;99218.52;2328840;83;25833;-82
2021/11/21 15:55:26;;;;;;;21.48;13.48;;;;;;;13.93;54.86;99222.92;2331161;82;26130;-82
2021/11/21 15:58:50;;;;;;;22.42;15.65;;;;;;;13.88;55.01;99218.63;2344587;82;25673;-83
2021/11/21 16:02:14;;;;;;;21.57;15.93;;;;;;;13.86;55.14;99228.23;2341293;82;26187;-83
2021/11/21 16:06:23;;;;;;;22.90;14.80;;;;;;;13.81;55.25;99226.11;2305251;82;25785;-82
2021/11/21 16:09:47;;;;;;;19.05;15.32;;;;;;;13.77;55.36;99230.51;2309469;84;26476;-83
2021/11/21 16:13:08;;;;;;;20.80;15.28;;;;;;;13.72;55.45;99227.48;2336449;83;25908;-82
2021/11/21 16:17:07;;;;;;;20.55;16.52;;;;;;;13.68;55.55;99219.64;2344149;83;26007;-81
2021/11/21 16:20:49;;;;;;;21.13;15.70;;;;;;;13.65;55.61;99222.28;2272960;85;25964;-82
2021/11/21 16:24:10;;;;;;;25.57;16.10;;;;;;;13.61;55.60;99228.88;2254126;86;26022;-82
2021/11/21 16:27:39;;;;;;;24.72;15.30;;;;;;;13.61;55.60;99228.88;2250310;85;25957;-79
2021/11/21 16:31:01;;;;;;;19.67;15.78;;;;;;;13.59;55.77;99237.17;2253620;84;26024;-79
2021/11/21 16:34:24;;;;;;;22.87;15.30;;;;;;;13.60;55.83;99236.28;2305710;85;25714;-78
2021/11/21 16:37:51;;;;;;;20.97;15.68;;;;;;;13.69;55.94;99240.16;2285050;85;25833;-84
2021/11/21 16:41:17;;;;;;;18.48;14.35;;;;;;;13.69;55.94;99240.16;2277514;84;25707;-82
2021/11/21 16:44:53;;;;;;;19.92;14.63;;;;;;;13.68;55.97;99231.87;2282303;84;25714;-82
2021/11/21 16:48:24;;;;;;;19.75;13.83;;;;;;;13.68;55.97;99231.87;2259233;85;25848;-80